createdAt,value
2022-12-27T00:00:34.928Z,924.63
2022-12-27T00:01:34.838Z,924.64
2022-12-27T00:02:35.004Z,924.64
2022-12-27T00:03:34.824Z,924.66
2022-12-27T00:04:35.841Z,924.68
2022-12-27T00:05:34.765Z,924.70
2022-12-27T00:06:34.832Z,924.71
2022-12-27T00:07:34.831Z,924.72
2022-12-27T00:08:34.787Z,924.72
2022-12-27T00:09:34.826Z,924.72
2022-12-27T00:10:34.706Z,924.71
2022-12-27T00:11:34.706Z,924.71
2022-12-27T00:12:34.716Z,924.71
2022-12-27T00:13:34.723Z,924.73
2022-12-27T00:14:34.729Z,924.74
2022-12-27T00:15:34.845Z,924.76
2022-12-27T00:16:34.930Z,924.77
2022-12-27T00:17:34.743Z,924.78
2022-12-27T00:18:34.644Z,924.79
2022-12-27T00:19:34.652Z,924.79
2022-12-27T00:20:34.614Z,924.80
2022-12-27T00:21:34.661Z,924.80
2022-12-27T00:22:34.651Z,924.81
2022-12-27T00:23:34.689Z,924.82
2022-12-27T00:24:34.566Z,924.84
2022-12-27T00:25:34.585Z,924.86
2022-12-27T00:26:34.581Z,924.88
2022-12-27T00:27:34.595Z,924.90
2022-12-27T00:28:34.940Z,924.93
2022-12-27T00:29:34.583Z,924.94
2022-12-27T00:30:34.492Z,924.96
2022-12-27T00:31:34.551Z,924.98
2022-12-27T00:32:34.515Z,925.00
2022-12-27T00:33:34.505Z,925.02
2022-12-27T00:34:34.834Z,925.04
2022-12-27T00:35:34.449Z,925.07
2022-12-27T00:36:34.465Z,925.10
2022-12-27T00:37:34.457Z,925.13
2022-12-27T00:38:34.466Z,925.16
2022-12-27T00:39:34.474Z,925.18
2022-12-27T00:40:34.472Z,925.18
2022-12-27T00:41:34.487Z,925.19
2022-12-27T00:42:34.394Z,925.20
2022-12-27T00:43:34.391Z,925.21
2022-12-27T00:44:34.411Z,925.22
2022-12-27T00:45:34.453Z,925.25
2022-12-27T00:46:34.423Z,925.27
2022-12-27T00:47:34.396Z,925.31
2022-12-27T00:48:34.344Z,925.33
2022-12-27T00:49:34.337Z,925.36
2022-12-27T00:50:34.345Z,925.38
2022-12-27T00:51:34.362Z,925.41
2022-12-27T00:52:34.362Z,925.42
2022-12-27T00:53:34.268Z,925.44
2022-12-27T00:54:34.277Z,925.45
2022-12-27T00:55:34.278Z,925.45
2022-12-27T00:56:34.274Z,925.45
2022-12-27T00:57:34.305Z,925.45
2022-12-27T00:58:39.853Z,925.44
2022-12-27T00:59:34.199Z,925.44
2022-12-27T01:00:34.213Z,925.45
2022-12-27T01:01:34.275Z,925.46
2022-12-27T01:02:34.210Z,925.48
2022-12-27T01:03:34.222Z,925.49
2022-12-27T01:04:34.235Z,925.51
2022-12-27T01:05:34.118Z,925.52
2022-12-27T01:06:34.153Z,925.53
2022-12-27T01:07:34.143Z,925.54
2022-12-27T01:08:34.155Z,925.55
2022-12-27T01:09:34.161Z,925.56
2022-12-27T01:10:34.097Z,925.57
2022-12-27T01:11:34.070Z,925.57
2022-12-27T01:12:34.072Z,925.57
2022-12-27T01:13:34.017Z,925.57
2022-12-27T01:14:34.085Z,925.59
2022-12-27T01:15:34.095Z,925.60
2022-12-27T01:16:34.149Z,925.61
2022-12-27T01:17:33.934Z,925.62
2022-12-27T01:18:33.948Z,925.62
2022-12-27T01:19:33.948Z,925.62
2022-12-27T01:20:34.055Z,925.62
2022-12-27T01:21:34.341Z,925.61
2022-12-27T01:22:34.341Z,925.61
2022-12-27T01:23:33.877Z,925.61
2022-12-27T01:24:33.955Z,925.61
2022-12-27T01:25:33.946Z,925.60
2022-12-27T01:26:33.971Z,925.59
2022-12-27T01:27:33.974Z,925.58
2022-12-27T01:28:34.106Z,925.57
2022-12-27T01:29:33.880Z,925.56
2022-12-27T01:30:33.883Z,925.58
2022-12-27T01:31:33.917Z,925.59
2022-12-27T01:32:33.904Z,925.60
2022-12-27T01:33:33.922Z,925.62
2022-12-27T01:34:34.639Z,925.63
2022-12-27T01:35:33.812Z,925.64
2022-12-27T01:36:33.759Z,925.65
2022-12-27T01:37:33.826Z,925.66
2022-12-27T01:38:33.838Z,925.66
2022-12-27T01:39:34.288Z,925.66
2022-12-27T01:40:33.847Z,925.66
2022-12-27T01:41:33.754Z,925.67
2022-12-27T01:42:33.761Z,925.67
2022-12-27T01:43:33.769Z,925.67
2022-12-27T01:44:33.778Z,925.67
2022-12-27T01:45:33.749Z,925.67
2022-12-27T01:46:33.725Z,925.67
2022-12-27T01:47:33.704Z,925.67
2022-12-27T01:48:33.692Z,925.67
2022-12-27T01:49:33.633Z,925.67
2022-12-27T01:50:33.666Z,925.67
2022-12-27T01:51:33.680Z,925.68
2022-12-27T01:52:35.168Z,925.68
2022-12-27T01:53:33.595Z,925.69
2022-12-27T01:54:33.709Z,925.70
2022-12-27T01:55:33.581Z,925.71
2022-12-27T01:56:33.583Z,925.71
2022-12-27T01:57:33.595Z,925.72
2022-12-27T01:58:33.677Z,925.72
2022-12-27T01:59:33.519Z,925.72
2022-12-27T02:00:33.515Z,925.72
2022-12-27T02:01:33.688Z,925.73
2022-12-27T02:02:33.647Z,925.73
2022-12-27T02:03:33.640Z,925.73
2022-12-27T02:04:33.544Z,925.74
2022-12-27T02:05:33.519Z,925.74
2022-12-27T02:06:33.514Z,925.76
2022-12-27T02:07:33.459Z,925.77
2022-12-27T02:08:33.488Z,925.78
2022-12-27T02:09:33.494Z,925.79
2022-12-27T02:10:33.478Z,925.79
2022-12-27T02:11:33.397Z,925.79
2022-12-27T02:12:33.407Z,925.78
2022-12-27T02:13:33.455Z,925.78
2022-12-27T02:14:33.425Z,925.78
2022-12-27T02:15:33.475Z,925.78
2022-12-27T02:16:33.507Z,925.77
2022-12-27T02:17:33.454Z,925.77
2022-12-27T02:18:33.390Z,925.75
2022-12-27T02:19:33.418Z,925.74
2022-12-27T02:20:33.878Z,925.72
2022-12-27T02:21:33.363Z,925.70
2022-12-27T02:22:33.249Z,925.68
2022-12-27T02:23:39.163Z,925.67
2022-12-27T02:24:33.271Z,925.65
2022-12-27T02:25:33.301Z,925.64
2022-12-27T02:26:33.306Z,925.63
2022-12-27T02:27:33.266Z,925.63
2022-12-27T02:28:33.276Z,925.64
2022-12-27T02:29:33.215Z,925.66
2022-12-27T02:30:33.234Z,925.66
2022-12-27T02:31:33.308Z,925.66
2022-12-27T02:32:33.288Z,925.66
2022-12-27T02:33:33.200Z,925.65
2022-12-27T02:34:33.208Z,925.64
2022-12-27T02:35:33.160Z,925.62
2022-12-27T02:36:33.180Z,925.60
2022-12-27T02:37:33.148Z,925.59
2022-12-27T02:38:33.232Z,925.59
2022-12-27T02:39:33.106Z,925.60
2022-12-27T02:40:33.108Z,925.61
2022-12-27T02:41:33.109Z,925.61
2022-12-27T02:42:33.149Z,925.62
2022-12-27T02:43:33.121Z,925.61
2022-12-27T02:44:33.119Z,925.59
2022-12-27T02:45:33.035Z,925.57
2022-12-27T02:46:33.096Z,925.55
2022-12-27T02:47:33.668Z,925.54
2022-12-27T02:48:32.983Z,925.53
2022-12-27T02:49:33.004Z,925.52
2022-12-27T02:50:33.110Z,925.52
2022-12-27T02:51:32.980Z,925.51
2022-12-27T02:52:33.024Z,925.51
2022-12-27T02:53:32.999Z,925.50
2022-12-27T02:54:32.990Z,925.51
2022-12-27T02:55:33.052Z,925.51
2022-12-27T02:56:33.364Z,925.51
2022-12-27T02:57:32.908Z,925.51
2022-12-27T02:58:32.908Z,925.51
2022-12-27T02:59:33.020Z,925.50
2022-12-27T03:00:32.866Z,925.49
2022-12-27T03:01:32.984Z,925.48
2022-12-27T03:02:33.104Z,925.46
2022-12-27T03:03:32.886Z,925.44
2022-12-27T03:04:32.872Z,925.42
2022-12-27T03:05:32.855Z,925.39
2022-12-27T03:06:32.818Z,925.36
2022-12-27T03:07:32.812Z,925.32
2022-12-27T03:08:32.817Z,925.30
2022-12-27T03:09:32.779Z,925.28
2022-12-27T03:10:32.811Z,925.26
2022-12-27T03:11:32.750Z,925.25
2022-12-27T03:12:32.757Z,925.23
2022-12-27T03:13:32.754Z,925.21
2022-12-27T03:14:32.760Z,925.20
2022-12-27T03:15:33.567Z,925.18
2022-12-27T03:16:32.737Z,925.18
2022-12-27T03:17:32.743Z,925.17
2022-12-27T03:18:32.740Z,925.16
2022-12-27T03:19:32.694Z,925.17
2022-12-27T03:20:32.700Z,925.18
2022-12-27T03:21:32.650Z,925.18
2022-12-27T03:22:32.667Z,925.18
2022-12-27T03:23:32.623Z,925.18
2022-12-27T03:24:32.620Z,925.17
2022-12-27T03:25:32.679Z,925.17
2022-12-27T03:26:32.884Z,925.15
2022-12-27T03:27:33.598Z,925.14
2022-12-27T03:28:32.548Z,925.13
2022-12-27T03:29:32.537Z,925.13
2022-12-27T03:30:32.543Z,925.13
2022-12-27T03:31:32.553Z,925.12
2022-12-27T03:32:32.614Z,925.11
2022-12-27T03:33:32.583Z,925.10
2022-12-27T03:34:32.547Z,925.08
2022-12-27T03:35:32.475Z,925.07
2022-12-27T03:36:32.482Z,925.07
2022-12-27T03:37:32.490Z,925.08
2022-12-27T03:38:32.879Z,925.09
2022-12-27T03:39:32.556Z,925.10
2022-12-27T03:40:32.404Z,925.11
2022-12-27T03:41:32.466Z,925.10
2022-12-27T03:42:32.423Z,925.09
2022-12-27T03:43:32.423Z,925.08
2022-12-27T03:44:32.532Z,925.08
2022-12-27T03:45:32.443Z,925.07
2022-12-27T03:46:32.489Z,925.08
2022-12-27T03:47:32.353Z,925.08
2022-12-27T03:48:32.418Z,925.08
2022-12-27T03:49:32.365Z,925.08
2022-12-27T03:50:32.885Z,925.08
2022-12-27T03:51:32.520Z,925.08
2022-12-27T03:52:32.338Z,925.08
2022-12-27T03:53:32.290Z,925.07
2022-12-27T03:54:32.295Z,925.06
2022-12-27T03:55:33.583Z,925.06
2022-12-27T03:56:32.373Z,925.04
2022-12-27T03:57:32.278Z,925.03
2022-12-27T03:58:32.218Z,925.01
2022-12-27T03:59:32.234Z,925.00
2022-12-27T04:00:32.240Z,925.00
2022-12-27T04:01:32.400Z,925.00
2022-12-27T04:02:32.638Z,925.01
2022-12-27T04:03:32.238Z,925.00
2022-12-27T04:04:32.833Z,924.98
2022-12-27T04:05:32.233Z,924.97
2022-12-27T04:06:32.172Z,924.95
2022-12-27T04:07:32.255Z,924.94
2022-12-27T04:08:32.186Z,924.94
2022-12-27T04:09:32.150Z,924.93
2022-12-27T04:10:32.682Z,924.93
2022-12-27T04:11:32.098Z,924.92
2022-12-27T04:12:32.196Z,924.91
2022-12-27T04:13:32.172Z,924.89
2022-12-27T04:14:32.406Z,924.88
2022-12-27T04:15:32.100Z,924.86
2022-12-27T04:16:32.111Z,924.85
2022-12-27T04:17:32.114Z,924.84
2022-12-27T04:18:32.121Z,924.81
2022-12-27T04:19:32.661Z,924.80
2022-12-27T04:20:32.129Z,924.79
2022-12-27T04:21:32.057Z,924.79
2022-12-27T04:22:32.032Z,924.79
2022-12-27T04:23:32.041Z,924.80
2022-12-27T04:24:32.068Z,924.80
2022-12-27T04:25:32.047Z,924.79
2022-12-27T04:26:32.074Z,924.79
2022-12-27T04:27:31.961Z,924.78
2022-12-27T04:28:31.979Z,924.79
2022-12-27T04:29:31.981Z,924.79
2022-12-27T04:30:31.900Z,924.78
2022-12-27T04:31:31.938Z,924.76
2022-12-27T04:32:31.925Z,924.76
2022-12-27T04:33:31.919Z,924.76
2022-12-27T04:34:31.925Z,924.76
2022-12-27T04:35:32.438Z,924.76
2022-12-27T04:36:31.841Z,924.77
2022-12-27T04:37:31.846Z,924.77
2022-12-27T04:38:31.835Z,924.77
2022-12-27T04:39:31.789Z,924.77
2022-12-27T04:40:31.882Z,924.76
2022-12-27T04:41:31.771Z,924.75
2022-12-27T04:42:31.773Z,924.75
2022-12-27T04:43:31.786Z,924.74
2022-12-27T04:44:31.727Z,924.73
2022-12-27T04:45:31.735Z,924.74
2022-12-27T04:46:31.849Z,924.75
2022-12-27T04:47:31.927Z,924.75
2022-12-27T04:48:31.654Z,924.75
2022-12-27T04:49:31.719Z,924.74
2022-12-27T04:50:31.662Z,924.75
2022-12-27T04:51:31.663Z,924.75
2022-12-27T04:52:31.683Z,924.75
2022-12-27T04:53:31.628Z,924.74
2022-12-27T04:54:31.580Z,924.73
2022-12-27T04:55:31.609Z,924.72
2022-12-27T04:56:31.643Z,924.71
2022-12-27T04:57:31.602Z,924.69
2022-12-27T04:58:31.611Z,924.69
2022-12-27T04:59:31.622Z,924.69
2022-12-27T05:00:31.627Z,924.69
2022-12-27T05:01:31.617Z,924.67
2022-12-27T05:02:31.752Z,924.66
2022-12-27T05:03:31.659Z,924.66
2022-12-27T05:04:31.557Z,924.65
2022-12-27T05:05:31.553Z,924.63
2022-12-27T05:06:31.570Z,924.64
2022-12-27T05:07:31.516Z,924.64
2022-12-27T05:08:31.465Z,924.65
2022-12-27T05:09:31.541Z,924.66
2022-12-27T05:10:31.544Z,924.67
2022-12-27T05:11:31.559Z,924.68
2022-12-27T05:12:31.496Z,924.69
2022-12-27T05:13:31.911Z,924.69
2022-12-27T05:14:31.474Z,924.70
2022-12-27T05:15:31.485Z,924.69
2022-12-27T05:16:31.518Z,924.70
2022-12-27T05:17:31.441Z,924.69
2022-12-27T05:18:31.499Z,924.69
2022-12-27T05:19:31.500Z,924.69
2022-12-27T05:20:31.450Z,924.69
2022-12-27T05:21:31.524Z,924.68
2022-12-27T05:22:31.418Z,924.68
2022-12-27T05:23:31.430Z,924.69
2022-12-27T05:24:31.432Z,924.70
2022-12-27T05:25:31.281Z,924.71
2022-12-27T05:26:32.180Z,924.72
2022-12-27T05:27:31.287Z,924.73
2022-12-27T05:28:31.361Z,924.74
2022-12-27T05:29:31.266Z,924.74
2022-12-27T05:30:31.208Z,924.74
2022-12-27T05:31:31.237Z,924.75
2022-12-27T05:32:31.414Z,924.76
2022-12-27T05:33:31.327Z,924.78
2022-12-27T05:34:31.229Z,924.79
2022-12-27T05:35:31.208Z,924.80
2022-12-27T05:36:31.210Z,924.80
2022-12-27T05:37:31.314Z,924.80
2022-12-27T05:38:31.232Z,924.80
2022-12-27T05:39:31.236Z,924.80
2022-12-27T05:40:31.135Z,924.81
2022-12-27T05:41:31.143Z,924.81
2022-12-27T05:42:31.148Z,924.81
2022-12-27T05:43:31.088Z,924.82
2022-12-27T05:44:31.160Z,924.82
2022-12-27T05:45:31.414Z,924.83
2022-12-27T05:46:31.143Z,924.83
2022-12-27T05:47:31.078Z,924.84
2022-12-27T05:48:31.107Z,924.84
2022-12-27T05:49:31.114Z,924.84
2022-12-27T05:50:31.097Z,924.83
2022-12-27T05:51:31.440Z,924.84
2022-12-27T05:52:33.971Z,924.84
2022-12-27T05:53:31.038Z,924.84
2022-12-27T05:54:31.122Z,924.85
2022-12-27T05:55:31.059Z,924.86
2022-12-27T05:56:31.677Z,924.87
2022-12-27T05:57:31.049Z,924.87
2022-12-27T05:58:30.955Z,924.87
2022-12-27T05:59:30.953Z,924.86
2022-12-27T06:00:30.969Z,924.85
2022-12-27T06:01:31.066Z,924.84
2022-12-27T06:02:31.128Z,924.83
2022-12-27T06:03:31.111Z,924.82
2022-12-27T06:04:30.904Z,924.81
2022-12-27T06:05:30.919Z,924.81
2022-12-27T06:06:30.900Z,924.81
2022-12-27T06:07:30.926Z,924.81
2022-12-27T06:08:31.028Z,924.80
2022-12-27T06:09:30.926Z,924.79
2022-12-27T06:10:30.827Z,924.78
2022-12-27T06:11:30.854Z,924.76
2022-12-27T06:12:30.926Z,924.76
2022-12-27T06:13:30.824Z,924.75
2022-12-27T06:14:30.867Z,924.75
2022-12-27T06:15:30.840Z,924.74
2022-12-27T06:16:30.802Z,924.72
2022-12-27T06:17:30.726Z,924.70
2022-12-27T06:18:30.803Z,924.67
2022-12-27T06:19:30.821Z,924.65
2022-12-27T06:20:30.812Z,924.62
2022-12-27T06:21:30.792Z,924.62
2022-12-27T06:22:30.719Z,924.62
2022-12-27T06:23:30.686Z,924.62
2022-12-27T06:24:30.793Z,924.63
2022-12-27T06:25:30.709Z,924.63
2022-12-27T06:26:30.745Z,924.64
2022-12-27T06:27:30.758Z,924.65
2022-12-27T06:28:30.651Z,924.66
2022-12-27T06:29:30.636Z,924.67
2022-12-27T06:30:35.945Z,924.68
2022-12-27T06:31:30.726Z,924.68
2022-12-27T06:32:30.931Z,924.67
2022-12-27T06:33:30.629Z,924.66
2022-12-27T06:34:30.599Z,924.64
2022-12-27T06:35:30.566Z,924.62
2022-12-27T06:36:30.612Z,924.60
2022-12-27T06:37:30.621Z,924.58
2022-12-27T06:38:30.639Z,924.57
2022-12-27T06:39:30.631Z,924.56
2022-12-27T06:40:30.511Z,924.56
2022-12-27T06:41:30.547Z,924.57
2022-12-27T06:42:30.506Z,924.57
2022-12-27T06:43:30.493Z,924.57
2022-12-27T06:44:30.527Z,924.57
2022-12-27T06:45:30.547Z,924.56
2022-12-27T06:46:30.448Z,924.55
2022-12-27T06:47:30.475Z,924.54
2022-12-27T06:48:30.485Z,924.54
2022-12-27T06:49:30.431Z,924.54
2022-12-27T06:50:30.435Z,924.55
2022-12-27T06:51:30.467Z,924.55
2022-12-27T06:52:30.347Z,924.57
2022-12-27T06:53:30.416Z,924.58
2022-12-27T06:54:30.363Z,924.59
2022-12-27T06:55:30.407Z,924.59
2022-12-27T06:56:30.373Z,924.59
2022-12-27T06:57:30.312Z,924.59
2022-12-27T06:58:30.287Z,924.59
2022-12-27T06:59:30.376Z,924.59
2022-12-27T07:00:31.006Z,924.60
2022-12-27T07:01:30.599Z,924.61
2022-12-27T07:02:30.334Z,924.62
2022-12-27T07:03:30.220Z,924.62
2022-12-27T07:04:30.259Z,924.62
2022-12-27T07:05:30.234Z,924.62
2022-12-27T07:06:30.996Z,924.64
2022-12-27T07:07:30.224Z,924.66
2022-12-27T07:08:30.183Z,924.68
2022-12-27T07:09:30.156Z,924.70
2022-12-27T07:10:30.168Z,924.73
2022-12-27T07:11:30.204Z,924.75
2022-12-27T07:12:36.284Z,924.77
2022-12-27T07:13:30.156Z,924.79
2022-12-27T07:14:30.124Z,924.80
2022-12-27T07:15:30.143Z,924.82
2022-12-27T07:16:30.191Z,924.83
2022-12-27T07:17:30.081Z,924.85
2022-12-27T07:18:30.103Z,924.88
2022-12-27T07:19:30.054Z,924.90
2022-12-27T07:20:30.096Z,924.92
2022-12-27T07:21:30.068Z,924.93
2022-12-27T07:22:30.013Z,924.93
2022-12-27T07:23:30.114Z,924.93
2022-12-27T07:24:30.032Z,924.93
2022-12-27T07:25:30.048Z,924.94
2022-12-27T07:26:30.512Z,924.95
2022-12-27T07:27:30.043Z,924.96
2022-12-27T07:28:29.949Z,924.96
2022-12-27T07:29:29.962Z,924.97
2022-12-27T07:30:29.997Z,924.97
2022-12-27T07:31:30.020Z,924.98
2022-12-27T07:32:29.927Z,924.98
2022-12-27T07:33:29.948Z,924.98
2022-12-27T07:34:29.963Z,924.98
2022-12-27T07:35:29.900Z,924.98
2022-12-27T07:36:29.917Z,924.97
2022-12-27T07:37:29.902Z,924.96
2022-12-27T07:38:29.905Z,924.96
2022-12-27T07:39:29.833Z,924.95
2022-12-27T07:40:29.879Z,924.95
2022-12-27T07:41:29.832Z,924.95
2022-12-27T07:42:29.860Z,924.95
2022-12-27T07:43:29.844Z,924.95
2022-12-27T07:44:29.864Z,924.96
2022-12-27T07:45:29.923Z,924.97
2022-12-27T07:46:29.831Z,924.97
2022-12-27T07:47:29.829Z,924.98
2022-12-27T07:48:29.844Z,924.98
2022-12-27T07:49:29.784Z,924.98
2022-12-27T07:50:29.803Z,924.98
2022-12-27T07:51:29.912Z,924.99
2022-12-27T07:52:29.767Z,925.01
2022-12-27T07:53:29.784Z,925.02
2022-12-27T07:54:29.717Z,925.04
2022-12-27T07:55:29.725Z,925.05
2022-12-27T07:56:29.733Z,925.06
2022-12-27T07:57:29.951Z,925.06
2022-12-27T07:58:29.696Z,925.08
2022-12-27T07:59:29.826Z,925.10
2022-12-27T08:00:29.675Z,925.10
2022-12-27T08:01:29.989Z,925.12
2022-12-27T08:02:29.852Z,925.13
2022-12-27T08:03:29.729Z,925.14
2022-12-27T08:04:29.654Z,925.15
2022-12-27T08:05:29.587Z,925.16
2022-12-27T08:06:29.601Z,925.17
2022-12-27T08:07:29.605Z,925.18
2022-12-27T08:08:29.615Z,925.19
2022-12-27T08:09:29.927Z,925.21
2022-12-27T08:10:29.623Z,925.24
2022-12-27T08:11:29.587Z,925.26
2022-12-27T08:12:29.541Z,925.28
2022-12-27T08:13:29.585Z,925.29
2022-12-27T08:14:29.570Z,925.30
2022-12-27T08:15:29.617Z,925.31
2022-12-27T08:16:29.606Z,925.32
2022-12-27T08:17:29.475Z,925.34
2022-12-27T08:18:29.521Z,925.35
2022-12-27T08:19:29.523Z,925.35
2022-12-27T08:20:29.436Z,925.36
2022-12-27T08:21:29.433Z,925.38
2022-12-27T08:22:29.443Z,925.41
2022-12-27T08:23:29.458Z,925.43
2022-12-27T08:24:29.979Z,925.44
2022-12-27T08:25:29.909Z,925.46
2022-12-27T08:26:29.386Z,925.47
2022-12-27T08:27:29.379Z,925.48
2022-12-27T08:28:29.331Z,925.49
2022-12-27T08:29:29.392Z,925.50
2022-12-27T08:30:29.444Z,925.51
2022-12-27T08:31:29.414Z,925.52
2022-12-27T08:32:29.315Z,925.52
2022-12-27T08:33:29.327Z,925.52
2022-12-27T08:34:29.330Z,925.53
2022-12-27T08:36:54.241Z,925.53
2022-12-27T08:37:29.347Z,925.54
2022-12-27T08:38:29.182Z,925.56
2022-12-27T08:39:29.269Z,925.57
2022-12-27T08:40:29.273Z,925.59
2022-12-27T08:41:29.196Z,925.61
2022-12-27T08:42:29.240Z,925.62
2022-12-27T08:43:29.208Z,925.63
2022-12-27T08:44:29.119Z,925.64
2022-12-27T08:45:29.135Z,925.64
2022-12-27T08:46:29.258Z,925.65
2022-12-27T08:47:29.150Z,925.66
2022-12-27T08:48:29.252Z,925.67
2022-12-27T08:49:29.233Z,925.67
2022-12-27T08:50:29.151Z,925.67
2022-12-27T08:51:35.982Z,925.67
2022-12-27T08:52:29.151Z,925.67
2022-12-27T08:53:29.651Z,925.68
2022-12-27T08:54:29.128Z,925.69
2022-12-27T08:55:29.050Z,925.69
2022-12-27T08:56:29.063Z,925.71
2022-12-27T08:57:29.075Z,925.73
2022-12-27T08:58:29.068Z,925.74
2022-12-27T08:59:29.078Z,925.74
2022-12-27T09:00:29.102Z,925.76
2022-12-27T09:01:29.062Z,925.79
2022-12-27T09:02:29.079Z,925.81
2022-12-27T09:03:29.098Z,925.83
2022-12-27T09:04:29.022Z,925.86
2022-12-27T09:05:29.022Z,925.87
2022-12-27T09:06:29.016Z,925.89
2022-12-27T09:07:28.935Z,925.90
2022-12-27T09:08:28.945Z,925.91
2022-12-27T09:09:28.888Z,925.91
2022-12-27T09:10:29.274Z,925.91
2022-12-27T09:11:28.948Z,925.92
2022-12-27T09:12:28.968Z,925.92
2022-12-27T09:13:28.985Z,925.93
2022-12-27T09:14:29.493Z,925.94
2022-12-27T09:15:28.952Z,925.95
2022-12-27T09:16:28.949Z,925.96
2022-12-27T09:17:28.894Z,925.97
2022-12-27T09:18:28.899Z,925.97
2022-12-27T09:19:28.831Z,925.98
2022-12-27T09:20:28.806Z,925.99
2022-12-27T09:21:28.831Z,926.00
2022-12-27T09:22:28.778Z,926.02
2022-12-27T09:23:28.761Z,926.05
2022-12-27T09:24:28.727Z,926.07
2022-12-27T09:25:28.699Z,926.08
2022-12-27T09:26:28.753Z,926.09
2022-12-27T09:27:28.746Z,926.10
2022-12-27T09:28:28.723Z,926.10
2022-12-27T09:29:28.724Z,926.11
2022-12-27T09:30:28.794Z,926.12
2022-12-27T09:31:28.784Z,926.13
2022-12-27T09:32:28.693Z,926.15
2022-12-27T09:33:28.655Z,926.16
2022-12-27T09:34:28.706Z,926.16
2022-12-27T09:35:29.072Z,926.16
2022-12-27T09:36:28.773Z,926.17
2022-12-27T09:37:28.700Z,926.18
2022-12-27T09:38:28.636Z,926.20
2022-12-27T09:39:28.596Z,926.23
2022-12-27T09:40:29.058Z,926.26
2022-12-27T09:43:28.618Z,926.35
2022-12-27T09:44:28.528Z,926.37
2022-12-27T09:45:28.587Z,926.39
2022-12-27T09:46:28.604Z,926.41
2022-12-27T09:47:28.545Z,926.42
2022-12-27T09:48:33.323Z,926.44
2022-12-27T09:49:28.616Z,926.46
2022-12-27T09:50:28.463Z,926.49
2022-12-27T09:51:29.487Z,926.52
2022-12-27T09:52:28.477Z,926.54
2022-12-27T09:53:28.584Z,926.57
2022-12-27T09:54:28.532Z,926.58
2022-12-27T09:55:28.551Z,926.60
2022-12-27T09:56:46.949Z,926.61
2022-12-27T09:57:28.454Z,926.62
2022-12-27T09:58:28.564Z,926.64
2022-12-27T09:59:28.558Z,926.65
2022-12-27T10:00:34.306Z,926.66
2022-12-27T10:01:29.231Z,926.67
2022-12-27T10:02:28.590Z,926.69
2022-12-27T10:03:28.400Z,926.71
2022-12-27T10:04:52.535Z,926.71
2022-12-27T10:05:28.416Z,926.71
2022-12-27T10:06:28.481Z,926.70
2022-12-27T10:07:28.324Z,926.70
2022-12-27T10:08:28.416Z,926.69
2022-12-27T10:09:28.318Z,926.69
2022-12-27T10:10:28.339Z,926.71
2022-12-27T10:11:28.300Z,926.72
2022-12-27T10:12:31.782Z,926.72
2022-12-27T10:13:28.221Z,926.73
2022-12-27T10:14:28.309Z,926.74
2022-12-27T10:15:28.219Z,926.75
2022-12-27T10:16:28.326Z,926.79
2022-12-27T10:17:28.537Z,926.80
2022-12-27T10:18:28.297Z,926.82
2022-12-27T10:19:28.299Z,926.84
2022-12-27T10:20:28.154Z,926.86
2022-12-27T10:21:28.264Z,926.87
2022-12-27T10:22:28.680Z,926.87
2022-12-27T10:23:28.173Z,926.88
2022-12-27T10:24:28.175Z,926.89
2022-12-27T10:25:28.153Z,926.90
2022-12-27T10:26:28.098Z,926.90
2022-12-27T10:27:28.094Z,926.90
2022-12-27T10:28:28.160Z,926.92
2022-12-27T10:29:28.152Z,926.93
2022-12-27T10:30:28.110Z,926.92
2022-12-27T10:31:28.229Z,926.93
2022-12-27T10:32:28.117Z,926.94
2022-12-27T10:33:28.037Z,926.96
2022-12-27T10:34:28.035Z,926.97
2022-12-27T10:35:28.665Z,926.99
2022-12-27T10:36:28.064Z,927.01
2022-12-27T10:37:28.024Z,927.02
2022-12-27T10:38:28.119Z,927.03
2022-12-27T10:39:27.971Z,927.05
2022-12-27T10:40:34.036Z,927.05
2022-12-27T10:41:27.984Z,927.04
2022-12-27T10:42:27.896Z,927.03
2022-12-27T10:43:28.061Z,927.02
2022-12-27T10:44:27.972Z,927.01
2022-12-27T10:45:28.111Z,927.00
2022-12-27T10:46:32.804Z,927.00
2022-12-27T10:47:27.926Z,927.00
2022-12-27T10:48:36.352Z,927.01
2022-12-27T10:49:27.940Z,927.01
2022-12-27T10:50:27.973Z,927.01
2022-12-27T10:51:27.811Z,927.00
2022-12-27T10:52:27.847Z,927.01
2022-12-27T10:53:28.172Z,927.00
2022-12-27T10:54:28.121Z,927.01
2022-12-27T10:55:27.983Z,927.02
2022-12-27T10:56:27.972Z,927.02
2022-12-27T10:57:28.909Z,927.03
2022-12-27T10:58:28.101Z,927.03
2022-12-27T10:59:27.995Z,927.04
2022-12-27T11:00:27.870Z,927.04
2022-12-27T11:01:28.015Z,927.02
2022-12-27T11:02:27.918Z,927.03
2022-12-27T11:03:27.670Z,927.01
2022-12-27T11:04:27.793Z,926.99
2022-12-27T11:05:28.003Z,927.02
2022-12-27T11:06:27.692Z,927.03
2022-12-27T11:07:27.807Z,926.99
2022-12-27T11:08:27.705Z,926.99
2022-12-27T11:09:27.650Z,926.98
2022-12-27T11:10:27.731Z,926.98
2022-12-27T11:11:27.632Z,926.98
2022-12-27T11:12:27.637Z,927.02
2022-12-27T11:13:27.679Z,927.00
2022-12-27T11:14:27.682Z,926.98
2022-12-27T11:15:27.553Z,927.01
2022-12-27T11:16:27.668Z,927.00
2022-12-27T11:17:27.575Z,927.00
2022-12-27T11:18:27.577Z,927.02
2022-12-27T11:19:27.617Z,927.02
2022-12-27T11:20:27.592Z,927.03
2022-12-27T11:21:28.278Z,927.01
2022-12-27T11:22:27.507Z,927.03
2022-12-27T11:23:27.449Z,927.03
2022-12-27T11:24:27.551Z,927.05
2022-12-27T11:25:27.529Z,927.02
2022-12-27T11:26:27.534Z,927.03
2022-12-27T11:27:27.477Z,927.01
2022-12-27T11:28:27.478Z,926.99
2022-12-27T11:29:27.562Z,927.01
2022-12-27T11:30:27.482Z,926.97
2022-12-27T11:31:27.539Z,926.96
2022-12-27T11:32:27.364Z,926.95
2022-12-27T11:33:27.473Z,926.95
2022-12-27T11:34:27.406Z,926.94
2022-12-27T11:35:27.590Z,926.94
2022-12-27T11:36:27.416Z,926.94
2022-12-27T11:37:27.650Z,926.97
2022-12-27T11:38:27.338Z,926.93
2022-12-27T11:39:27.340Z,926.93
2022-12-27T11:40:27.349Z,926.93
2022-12-27T11:41:28.131Z,926.96
2022-12-27T11:42:27.364Z,926.92
2022-12-27T11:43:27.364Z,926.97
2022-12-27T11:44:27.369Z,926.98
2022-12-27T11:45:27.292Z,926.98
2022-12-27T11:46:27.292Z,926.99
2022-12-27T11:47:27.287Z,926.97
2022-12-27T11:48:27.291Z,926.99
2022-12-27T11:49:27.609Z,927.00
2022-12-27T11:50:27.252Z,927.00
2022-12-27T11:51:27.170Z,927.01
2022-12-27T11:52:27.198Z,927.04
2022-12-27T11:53:27.221Z,927.06
2022-12-27T11:54:27.185Z,927.02
2022-12-27T11:55:27.243Z,927.03
2022-12-27T11:56:27.161Z,927.04
2022-12-27T11:57:27.122Z,927.05
2022-12-27T11:58:27.143Z,927.07
2022-12-27T11:59:27.129Z,927.08
2022-12-27T12:00:27.100Z,927.07
2022-12-27T12:01:27.623Z,927.12
2022-12-27T12:02:27.727Z,927.10
2022-12-27T12:03:27.102Z,927.11
2022-12-27T12:04:27.060Z,927.13
2022-12-27T12:05:27.161Z,927.14
2022-12-27T12:06:32.817Z,927.12
2022-12-27T12:07:27.024Z,927.12
2022-12-27T12:08:27.081Z,927.20
2022-12-27T12:09:26.984Z,927.12
2022-12-27T12:10:27.036Z,927.14
2022-12-27T12:11:26.944Z,927.12
2022-12-27T12:12:26.953Z,927.17
2022-12-27T12:13:27.070Z,927.17
2022-12-27T12:14:26.916Z,927.21
2022-12-27T12:15:26.923Z,927.16
2022-12-27T12:16:27.008Z,927.13
2022-12-27T12:17:32.461Z,927.17
2022-12-27T12:18:26.927Z,927.08
2022-12-27T12:19:26.936Z,927.08
2022-12-27T12:20:26.839Z,927.09
2022-12-27T12:21:26.966Z,927.05
2022-12-27T12:22:26.858Z,927.14
2022-12-27T12:23:26.819Z,927.09
2022-12-27T12:24:26.869Z,927.05
2022-12-27T12:25:27.084Z,927.12
2022-12-27T12:26:26.782Z,927.06
2022-12-27T12:27:26.849Z,927.08
2022-12-27T12:28:56.246Z,927.08
2022-12-27T12:29:26.800Z,927.07
2022-12-27T12:30:27.588Z,927.07
2022-12-27T12:31:26.858Z,927.06